sensor_id;sensor_type;location;lat;lon;timestamp;P1;durP1;ratioP1;P2;durP2;ratioP2
9563;SDS011;4820;50.870;4.702;2023-03-07T00:00:51;4.53;;;4.00;;
9563;SDS011;4820;50.870;4.702;2023-03-07T00:03:16;4.90;;;3.80;;
9563;SDS011;4820;50.870;4.702;2023-03-07T00:05:45;3.30;;;3.00;;
9563;SDS011;4820;50.870;4.702;2023-03-07T00:08:11;4.55;;;3.10;;
9563;SDS011;4820;50.870;4.702;2023-03-07T00:10:39;3.58;;;3.17;;
9563;SDS011;4820;50.870;4.702;2023-03-07T00:13:04;4.40;;;3.20;;
9563;SDS011;4820;50.870;4.702;2023-03-07T00:15:30;4.30;;;3.72;;
9563;SDS011;4820;50.870;4.702;2023-03-07T00:17:56;5.28;;;3.33;;
9563;SDS011;4820;50.870;4.702;2023-03-07T00:20:22;4.53;;;3.55;;
9563;SDS011;4820;50.870;4.702;2023-03-07T00:22:48;4.00;;;3.55;;
9563;SDS011;4820;50.870;4.702;2023-03-07T00:25:13;5.60;;;3.55;;
9563;SDS011;4820;50.870;4.702;2023-03-07T00:27:41;4.38;;;3.67;;
9563;SDS011;4820;50.870;4.702;2023-03-07T00:30:07;5.00;;;4.18;;
9563;SDS011;4820;50.870;4.702;2023-03-07T00:32:34;5.10;;;4.05;;
9563;SDS011;4820;50.870;4.702;2023-03-07T00:35:00;5.32;;;4.35;;
9563;SDS011;4820;50.870;4.702;2023-03-07T00:37:26;5.97;;;4.70;;
9563;SDS011;4820;50.870;4.702;2023-03-07T00:39:51;5.53;;;5.03;;
9563;SDS011;4820;50.870;4.702;2023-03-07T00:42:17;6.28;;;5.68;;
9563;SDS011;4820;50.870;4.702;2023-03-07T00:44:43;7.38;;;6.07;;
9563;SDS011;4820;50.870;4.702;2023-03-07T00:47:09;6.72;;;5.90;;
9563;SDS011;4820;50.870;4.702;2023-03-07T00:49:35;7.40;;;6.47;;
9563;SDS011;4820;50.870;4.702;2023-03-07T00:52:00;9.80;;;7.35;;
9563;SDS011;4820;50.870;4.702;2023-03-07T00:54:26;14.40;;;8.07;;
9563;SDS011;4820;50.870;4.702;2023-03-07T00:56:52;9.27;;;7.22;;
9563;SDS011;4820;50.870;4.702;2023-03-07T00:59:18;8.88;;;7.65;;
9563;SDS011;4820;50.870;4.702;2023-03-07T01:01:44;9.52;;;7.38;;
9563;SDS011;4820;50.870;4.702;2023-03-07T01:04:10;9.35;;;8.35;;
9563;SDS011;4820;50.870;4.702;2023-03-07T01:06:35;11.43;;;8.48;;
9563;SDS011;4820;50.870;4.702;2023-03-07T01:09:02;10.35;;;7.95;;
9563;SDS011;4820;50.870;4.702;2023-03-07T01:11:30;12.68;;;8.02;;
9563;SDS011;4820;50.870;4.702;2023-03-07T01:13:56;11.43;;;8.20;;
9563;SDS011;4820;50.870;4.702;2023-03-07T01:16:33;9.43;;;8.23;;
9563;SDS011;4820;50.870;4.702;2023-03-07T01:19:04;10.15;;;8.50;;
9563;SDS011;4820;50.870;4.702;2023-03-07T01:21:33;11.55;;;8.63;;
9563;SDS011;4820;50.870;4.702;2023-03-07T01:24:01;9.43;;;8.43;;
9563;SDS011;4820;50.870;4.702;2023-03-07T01:26:29;9.57;;;7.70;;
9563;SDS011;4820;50.870;4.702;2023-03-07T01:28:56;9.55;;;8.07;;
9563;SDS011;4820;50.870;4.702;2023-03-07T01:31:24;12.27;;;8.65;;
9563;SDS011;4820;50.870;4.702;2023-03-07T01:33:51;10.93;;;8.57;;
9563;SDS011;4820;50.870;4.702;2023-03-07T01:36:19;12.27;;;8.65;;
9563;SDS011;4820;50.870;4.702;2023-03-07T01:38:55;10.85;;;9.25;;
9563;SDS011;4820;50.870;4.702;2023-03-07T01:41:22;10.18;;;8.93;;
9563;SDS011;4820;50.870;4.702;2023-03-07T01:43:49;11.15;;;8.57;;
9563;SDS011;4820;50.870;4.702;2023-03-07T01:48:44;10.70;;;8.70;;
9563;SDS011;4820;50.870;4.702;2023-03-07T01:51:31;10.55;;;8.43;;
9563;SDS011;4820;50.870;4.702;2023-03-07T01:54:00;11.48;;;8.80;;
9563;SDS011;4820;50.870;4.702;2023-03-07T01:56:29;9.68;;;8.02;;
9563;SDS011;4820;50.870;4.702;2023-03-07T01:58:55;12.77;;;8.85;;
9563;SDS011;4820;50.870;4.702;2023-03-07T02:01:21;10.60;;;8.40;;
9563;SDS011;4820;50.870;4.702;2023-03-07T02:03:50;10.38;;;7.90;;
9563;SDS011;4820;50.870;4.702;2023-03-07T02:06:20;11.98;;;9.05;;
9563;SDS011;4820;50.870;4.702;2023-03-07T02:08:47;11.70;;;8.15;;
9563;SDS011;4820;50.870;4.702;2023-03-07T02:11:15;12.90;;;9.20;;
9563;SDS011;4820;50.870;4.702;2023-03-07T02:13:40;11.85;;;9.00;;
9563;SDS011;4820;50.870;4.702;2023-03-07T02:16:06;10.02;;;7.90;;
9563;SDS011;4820;50.870;4.702;2023-03-07T02:18:33;10.98;;;8.98;;
9563;SDS011;4820;50.870;4.702;2023-03-07T02:23:50;12.73;;;9.73;;
9563;SDS011;4820;50.870;4.702;2023-03-07T02:28:57;10.43;;;8.57;;
9563;SDS011;4820;50.870;4.702;2023-03-07T02:31:24;12.20;;;9.32;;
9563;SDS011;4820;50.870;4.702;2023-03-07T02:33:50;10.90;;;9.10;;
9563;SDS011;4820;50.870;4.702;2023-03-07T02:36:17;10.60;;;9.05;;
9563;SDS011;4820;50.870;4.702;2023-03-07T02:38:47;12.20;;;9.00;;
9563;SDS011;4820;50.870;4.702;2023-03-07T02:41:15;12.48;;;9.20;;
9563;SDS011;4820;50.870;4.702;2023-03-07T02:43:47;13.00;;;9.10;;
9563;SDS011;4820;50.870;4.702;2023-03-07T02:46:13;12.60;;;10.10;;
9563;SDS011;4820;50.870;4.702;2023-03-07T02:48:39;11.57;;;9.02;;
9563;SDS011;4820;50.870;4.702;2023-03-07T02:51:05;10.45;;;9.18;;
9563;SDS011;4820;50.870;4.702;2023-03-07T02:53:31;11.23;;;9.43;;
9563;SDS011;4820;50.870;4.702;2023-03-07T02:55:57;12.32;;;9.68;;
9563;SDS011;4820;50.870;4.702;2023-03-07T02:58:24;12.07;;;9.27;;
9563;SDS011;4820;50.870;4.702;2023-03-07T03:00:50;12.65;;;9.90;;
9563;SDS011;4820;50.870;4.702;2023-03-07T03:03:16;13.30;;;9.27;;
9563;SDS011;4820;50.870;4.702;2023-03-07T03:05:43;12.15;;;9.50;;
9563;SDS011;4820;50.870;4.702;2023-03-07T03:08:09;13.73;;;9.73;;
9563;SDS011;4820;50.870;4.702;2023-03-07T03:10:35;12.55;;;9.35;;
9563;SDS011;4820;50.870;4.702;2023-03-07T03:13:02;11.15;;;9.15;;
9563;SDS011;4820;50.870;4.702;2023-03-07T03:15:28;11.32;;;9.10;;
9563;SDS011;4820;50.870;4.702;2023-03-07T03:17:53;12.23;;;9.10;;
9563;SDS011;4820;50.870;4.702;2023-03-07T03:20:19;11.20;;;9.68;;
9563;SDS011;4820;50.870;4.702;2023-03-07T03:22:45;12.35;;;9.15;;
9563;SDS011;4820;50.870;4.702;2023-03-07T03:25:11;12.55;;;9.32;;
9563;SDS011;4820;50.870;4.702;2023-03-07T03:27:39;12.02;;;9.40;;
9563;SDS011;4820;50.870;4.702;2023-03-07T03:30:06;13.40;;;9.45;;
9563;SDS011;4820;50.870;4.702;2023-03-07T03:32:35;12.02;;;9.55;;
9563;SDS011;4820;50.870;4.702;2023-03-07T03:35:01;10.50;;;9.23;;
9563;SDS011;4820;50.870;4.702;2023-03-07T03:37:29;12.60;;;9.32;;
9563;SDS011;4820;50.870;4.702;2023-03-07T03:39:55;13.15;;;9.85;;
9563;SDS011;4820;50.870;4.702;2023-03-07T03:42:21;12.27;;;9.15;;
9563;SDS011;4820;50.870;4.702;2023-03-07T03:44:47;12.35;;;9.75;;
9563;SDS011;4820;50.870;4.702;2023-03-07T03:47:13;12.32;;;9.73;;
9563;SDS011;4820;50.870;4.702;2023-03-07T03:49:39;12.18;;;9.55;;
9563;SDS011;4820;50.870;4.702;2023-03-07T03:52:05;14.63;;;10.02;;
9563;SDS011;4820;50.870;4.702;2023-03-07T03:54:30;11.55;;;9.52;;
9563;SDS011;4820;50.870;4.702;2023-03-07T03:56:56;12.23;;;10.18;;
9563;SDS011;4820;50.870;4.702;2023-03-07T03:59:22;12.13;;;8.85;;
9563;SDS011;4820;50.870;4.702;2023-03-07T04:01:48;14.02;;;10.38;;
9563;SDS011;4820;50.870;4.702;2023-03-07T04:04:13;12.43;;;9.68;;
9563;SDS011;4820;50.870;4.702;2023-03-07T04:06:39;11.55;;;9.45;;
9563;SDS011;4820;50.870;4.702;2023-03-07T04:09:06;12.43;;;9.32;;
9563;SDS011;4820;50.870;4.702;2023-03-07T04:11:33;12.45;;;9.13;;
9563;SDS011;4820;50.870;4.702;2023-03-07T04:13:59;12.07;;;9.27;;
9563;SDS011;4820;50.870;4.702;2023-03-07T04:16:25;10.80;;;8.93;;
9563;SDS011;4820;50.870;4.702;2023-03-07T04:18:51;12.07;;;8.57;;
9563;SDS011;4820;50.870;4.702;2023-03-07T04:21:17;11.15;;;8.23;;
9563;SDS011;4820;50.870;4.702;2023-03-07T04:23:44;14.63;;;9.57;;
9563;SDS011;4820;50.870;4.702;2023-03-07T04:26:11;12.00;;;9.73;;
9563;SDS011;4820;50.870;4.702;2023-03-07T04:28:40;13.23;;;9.50;;
9563;SDS011;4820;50.870;4.702;2023-03-07T04:31:13;10.18;;;8.80;;
9563;SDS011;4820;50.870;4.702;2023-03-07T04:33:41;12.73;;;9.13;;
9563;SDS011;4820;50.870;4.702;2023-03-07T04:36:07;12.13;;;9.13;;
9563;SDS011;4820;50.870;4.702;2023-03-07T04:38:34;12.18;;;8.98;;
9563;SDS011;4820;50.870;4.702;2023-03-07T04:41:02;10.70;;;8.48;;
9563;SDS011;4820;50.870;4.702;2023-03-07T04:43:28;11.43;;;8.90;;
9563;SDS011;4820;50.870;4.702;2023-03-07T04:45:53;10.73;;;8.57;;
9563;SDS011;4820;50.870;4.702;2023-03-07T04:48:19;10.85;;;8.65;;
9563;SDS011;4820;50.870;4.702;2023-03-07T04:50:47;11.30;;;8.95;;
9563;SDS011;4820;50.870;4.702;2023-03-07T04:53:16;13.10;;;8.82;;
9563;SDS011;4820;50.870;4.702;2023-03-07T04:55:43;10.68;;;9.05;;
9563;SDS011;4820;50.870;4.702;2023-03-07T04:58:09;11.68;;;8.55;;
9563;SDS011;4820;50.870;4.702;2023-03-07T05:00:44;11.90;;;8.70;;
9563;SDS011;4820;50.870;4.702;2023-03-07T05:03:11;10.50;;;8.32;;
9563;SDS011;4820;50.870;4.702;2023-03-07T05:05:38;10.30;;;8.65;;
9563;SDS011;4820;50.870;4.702;2023-03-07T05:08:04;10.23;;;8.30;;
9563;SDS011;4820;50.870;4.702;2023-03-07T05:10:31;10.43;;;8.68;;
9563;SDS011;4820;50.870;4.702;2023-03-07T05:12:57;11.95;;;8.98;;
9563;SDS011;4820;50.870;4.702;2023-03-07T05:15:23;10.68;;;8.27;;
9563;SDS011;4820;50.870;4.702;2023-03-07T05:17:49;13.18;;;9.10;;
9563;SDS011;4820;50.870;4.702;2023-03-07T05:20:15;9.52;;;7.97;;
9563;SDS011;4820;50.870;4.702;2023-03-07T05:22:40;12.10;;;8.57;;
9563;SDS011;4820;50.870;4.702;2023-03-07T05:25:06;12.07;;;8.75;;
9563;SDS011;4820;50.870;4.702;2023-03-07T05:27:32;9.63;;;8.63;;
9563;SDS011;4820;50.870;4.702;2023-03-07T05:29:58;10.88;;;9.23;;
9563;SDS011;4820;50.870;4.702;2023-03-07T05:32:24;13.18;;;9.43;;
9563;SDS011;4820;50.870;4.702;2023-03-07T05:34:50;11.85;;;9.00;;
9563;SDS011;4820;50.870;4.702;2023-03-07T05:37:16;11.32;;;8.85;;
9563;SDS011;4820;50.870;4.702;2023-03-07T05:39:41;11.02;;;8.45;;
9563;SDS011;4820;50.870;4.702;2023-03-07T05:42:07;9.95;;;8.32;;
9563;SDS011;4820;50.870;4.702;2023-03-07T05:44:33;10.75;;;8.95;;
9563;SDS011;4820;50.870;4.702;2023-03-07T05:46:59;12.52;;;8.80;;
9563;SDS011;4820;50.870;4.702;2023-03-07T05:49:25;12.17;;;9.10;;
9563;SDS011;4820;50.870;4.702;2023-03-07T05:51:50;12.00;;;8.82;;
9563;SDS011;4820;50.870;4.702;2023-03-07T05:54:16;11.30;;;9.00;;
9563;SDS011;4820;50.870;4.702;2023-03-07T05:56:42;11.97;;;9.33;;
9563;SDS011;4820;50.870;4.702;2023-03-07T05:59:07;9.68;;;8.40;;
9563;SDS011;4820;50.870;4.702;2023-03-07T06:01:36;12.23;;;8.98;;
9563;SDS011;4820;50.870;4.702;2023-03-07T06:04:01;10.80;;;8.25;;
9563;SDS011;4820;50.870;4.702;2023-03-07T06:06:27;10.88;;;8.25;;
9563;SDS011;4820;50.870;4.702;2023-03-07T06:08:53;10.20;;;8.23;;
9563;SDS011;4820;50.870;4.702;2023-03-07T06:11:19;14.17;;;9.17;;
9563;SDS011;4820;50.870;4.702;2023-03-07T06:13:45;11.95;;;8.50;;
9563;SDS011;4820;50.870;4.702;2023-03-07T06:16:12;9.48;;;8.18;;
9563;SDS011;4820;50.870;4.702;2023-03-07T06:18:39;10.27;;;8.55;;
9563;SDS011;4820;50.870;4.702;2023-03-07T06:21:05;10.05;;;8.50;;
9563;SDS011;4820;50.870;4.702;2023-03-07T06:23:33;11.55;;;8.55;;
9563;SDS011;4820;50.870;4.702;2023-03-07T06:26:00;13.57;;;8.50;;
9563;SDS011;4820;50.870;4.702;2023-03-07T06:28:27;9.90;;;8.10;;
9563;SDS011;4820;50.870;4.702;2023-03-07T06:30:52;10.15;;;8.75;;
9563;SDS011;4820;50.870;4.702;2023-03-07T06:33:18;11.88;;;8.82;;
9563;SDS011;4820;50.870;4.702;2023-03-07T06:35:44;11.20;;;8.93;;
9563;SDS011;4820;50.870;4.702;2023-03-07T06:38:11;11.80;;;8.35;;
9563;SDS011;4820;50.870;4.702;2023-03-07T06:40:38;13.25;;;8.73;;
9563;SDS011;4820;50.870;4.702;2023-03-07T06:43:04;10.30;;;8.85;;
9563;SDS011;4820;50.870;4.702;2023-03-07T06:45:30;12.05;;;9.05;;
9563;SDS011;4820;50.870;4.702;2023-03-07T06:47:56;11.15;;;8.60;;
9563;SDS011;4820;50.870;4.702;2023-03-07T06:50:22;11.13;;;9.07;;
9563;SDS011;4820;50.870;4.702;2023-03-07T06:52:48;10.98;;;9.00;;
9563;SDS011;4820;50.870;4.702;2023-03-07T06:55:16;11.88;;;9.10;;
9563;SDS011;4820;50.870;4.702;2023-03-07T06:57:42;11.00;;;8.80;;
9563;SDS011;4820;50.870;4.702;2023-03-07T07:00:08;11.13;;;9.10;;
9563;SDS011;4820;50.870;4.702;2023-03-07T07:02:35;12.98;;;9.38;;
9563;SDS011;4820;50.870;4.702;2023-03-07T07:05:01;10.55;;;8.88;;
9563;SDS011;4820;50.870;4.702;2023-03-07T07:07:27;11.00;;;9.32;;
9563;SDS011;4820;50.870;4.702;2023-03-07T07:09:53;12.68;;;8.60;;
9563;SDS011;4820;50.870;4.702;2023-03-07T07:12:19;11.10;;;8.95;;
9563;SDS011;4820;50.870;4.702;2023-03-07T07:14:45;11.40;;;9.18;;
9563;SDS011;4820;50.870;4.702;2023-03-07T07:17:11;11.23;;;9.20;;
9563;SDS011;4820;50.870;4.702;2023-03-07T07:19:37;12.10;;;9.15;;
9563;SDS011;4820;50.870;4.702;2023-03-07T07:22:03;11.75;;;8.98;;
9563;SDS011;4820;50.870;4.702;2023-03-07T07:24:28;13.88;;;9.82;;
9563;SDS011;4820;50.870;4.702;2023-03-07T07:26:57;11.38;;;9.15;;
9563;SDS011;4820;50.870;4.702;2023-03-07T07:29:23;13.25;;;9.65;;
9563;SDS011;4820;50.870;4.702;2023-03-07T07:31:49;11.32;;;9.35;;
9563;SDS011;4820;50.870;4.702;2023-03-07T07:34:15;11.38;;;9.23;;
9563;SDS011;4820;50.870;4.702;2023-03-07T07:36:40;10.80;;;9.45;;
9563;SDS011;4820;50.870;4.702;2023-03-07T07:39:06;11.27;;;9.25;;
9563;SDS011;4820;50.870;4.702;2023-03-07T07:41:34;12.35;;;8.95;;
9563;SDS011;4820;50.870;4.702;2023-03-07T07:44:00;13.20;;;9.00;;
9563;SDS011;4820;50.870;4.702;2023-03-07T07:46:25;13.82;;;9.45;;
9563;SDS011;4820;50.870;4.702;2023-03-07T07:48:54;11.68;;;8.68;;
9563;SDS011;4820;50.870;4.702;2023-03-07T07:51:20;11.60;;;8.93;;
9563;SDS011;4820;50.870;4.702;2023-03-07T07:53:46;12.18;;;9.02;;
9563;SDS011;4820;50.870;4.702;2023-03-07T07:56:12;12.20;;;9.10;;
9563;SDS011;4820;50.870;4.702;2023-03-07T07:58:38;10.88;;;8.98;;
9563;SDS011;4820;50.870;4.702;2023-03-07T08:01:14;10.80;;;8.90;;
9563;SDS011;4820;50.870;4.702;2023-03-07T08:03:42;10.45;;;8.57;;
9563;SDS011;4820;50.870;4.702;2023-03-07T08:06:08;12.00;;;8.52;;
9563;SDS011;4820;50.870;4.702;2023-03-07T08:08:35;10.45;;;8.88;;
9563;SDS011;4820;50.870;4.702;2023-03-07T08:11:01;10.02;;;7.93;;
9563;SDS011;4820;50.870;4.702;2023-03-07T08:13:28;10.35;;;8.35;;
9563;SDS011;4820;50.870;4.702;2023-03-07T08:15:54;10.27;;;8.23;;
9563;SDS011;4820;50.870;4.702;2023-03-07T08:18:20;12.00;;;8.90;;
9563;SDS011;4820;50.870;4.702;2023-03-07T08:20:46;8.93;;;7.68;;
9563;SDS011;4820;50.870;4.702;2023-03-07T08:23:12;10.48;;;8.75;;
9563;SDS011;4820;50.870;4.702;2023-03-07T08:25:38;10.75;;;8.35;;
9563;SDS011;4820;50.870;4.702;2023-03-07T08:28:04;10.98;;;8.40;;
9563;SDS011;4820;50.870;4.702;2023-03-07T08:30:31;10.50;;;8.00;;
9563;SDS011;4820;50.870;4.702;2023-03-07T08:32:59;9.25;;;7.72;;
9563;SDS011;4820;50.870;4.702;2023-03-07T08:35:25;8.88;;;7.18;;
9563;SDS011;4820;50.870;4.702;2023-03-07T08:37:52;8.50;;;6.68;;
9563;SDS011;4820;50.870;4.702;2023-03-07T08:40:20;7.32;;;6.20;;
9563;SDS011;4820;50.870;4.702;2023-03-07T08:42:48;7.22;;;6.40;;
9563;SDS011;4820;50.870;4.702;2023-03-07T08:45:13;8.93;;;6.70;;
9563;SDS011;4820;50.870;4.702;2023-03-07T08:47:39;8.90;;;6.75;;
9563;SDS011;4820;50.870;4.702;2023-03-07T08:50:05;9.00;;;6.85;;
9563;SDS011;4820;50.870;4.702;2023-03-07T08:52:31;6.95;;;6.25;;
9563;SDS011;4820;50.870;4.702;2023-03-07T08:54:58;9.73;;;7.32;;
9563;SDS011;4820;50.870;4.702;2023-03-07T08:57:24;8.45;;;7.50;;
9563;SDS011;4820;50.870;4.702;2023-03-07T08:59:49;8.38;;;7.07;;
9563;SDS011;4820;50.870;4.702;2023-03-07T09:02:15;8.52;;;7.40;;
9563;SDS011;4820;50.870;4.702;2023-03-07T09:04:43;8.63;;;7.45;;
9563;SDS011;4820;50.870;4.702;2023-03-07T09:07:09;8.98;;;6.85;;
9563;SDS011;4820;50.870;4.702;2023-03-07T09:09:35;8.75;;;7.15;;
9563;SDS011;4820;50.870;4.702;2023-03-07T09:12:01;8.15;;;7.35;;
9563;SDS011;4820;50.870;4.702;2023-03-07T09:14:27;8.82;;;7.70;;
9563;SDS011;4820;50.870;4.702;2023-03-07T09:16:52;9.70;;;8.10;;
9563;SDS011;4820;50.870;4.702;2023-03-07T09:19:19;8.55;;;7.47;;
9563;SDS011;4820;50.870;4.702;2023-03-07T09:21:45;9.82;;;7.45;;
9563;SDS011;4820;50.870;4.702;2023-03-07T09:24:11;10.88;;;7.85;;
9563;SDS011;4820;50.870;4.702;2023-03-07T09:26:37;8.70;;;7.32;;
9563;SDS011;4820;50.870;4.702;2023-03-07T09:29:04;8.95;;;7.47;;
9563;SDS011;4820;50.870;4.702;2023-03-07T09:31:32;8.50;;;7.68;;
9563;SDS011;4820;50.870;4.702;2023-03-07T09:33:58;9.80;;;7.40;;
9563;SDS011;4820;50.870;4.702;2023-03-07T09:36:23;9.15;;;7.60;;
9563;SDS011;4820;50.870;4.702;2023-03-07T09:38:49;8.68;;;7.00;;
9563;SDS011;4820;50.870;4.702;2023-03-07T09:47:12;7.47;;;6.50;;
9563;SDS011;4820;50.870;4.702;2023-03-07T09:52:32;9.70;;;6.53;;
9563;SDS011;4820;50.870;4.702;2023-03-07T09:55:05;6.88;;;6.13;;
9563;SDS011;4820;50.870;4.702;2023-03-07T09:58:16;8.05;;;5.97;;
9563;SDS011;4820;50.870;4.702;2023-03-07T10:00:40;6.95;;;5.70;;
9563;SDS011;4820;50.870;4.702;2023-03-07T10:05:57;7.72;;;6.28;;
9563;SDS011;4820;50.870;4.702;2023-03-07T10:08:27;7.50;;;6.32;;
9563;SDS011;4820;50.870;4.702;2023-03-07T10:16:54;7.07;;;6.03;;
9563;SDS011;4820;50.870;4.702;2023-03-07T10:24:43;7.65;;;6.65;;
9563;SDS011;4820;50.870;4.702;2023-03-07T10:27:14;7.40;;;6.32;;
9563;SDS011;4820;50.870;4.702;2023-03-07T10:29:53;5.93;;;5.32;;
9563;SDS011;4820;50.870;4.702;2023-03-07T10:37:26;6.20;;;5.60;;
9563;SDS011;4820;50.870;4.702;2023-03-07T10:40:00;6.40;;;5.40;;
9563;SDS011;4820;50.870;4.702;2023-03-07T10:42:29;7.18;;;5.00;;
9563;SDS011;4820;50.870;4.702;2023-03-07T10:44:59;5.63;;;5.03;;
9563;SDS011;4820;50.870;4.702;2023-03-07T10:47:26;5.65;;;4.82;;
9563;SDS011;4820;50.870;4.702;2023-03-07T10:49:56;5.70;;;4.18;;
9563;SDS011;4820;50.870;4.702;2023-03-07T10:52:56;3.42;;;3.13;;
9563;SDS011;4820;50.870;4.702;2023-03-07T10:55:31;3.60;;;2.92;;
9563;SDS011;4820;50.870;4.702;2023-03-07T11:00:44;4.35;;;3.08;;
9563;SDS011;4820;50.870;4.702;2023-03-07T11:03:22;3.80;;;3.30;;
9563;SDS011;4820;50.870;4.702;2023-03-07T11:05:51;4.00;;;3.05;;
9563;SDS011;4820;50.870;4.702;2023-03-07T11:08:23;4.03;;;3.45;;
9563;SDS011;4820;50.870;4.702;2023-03-07T11:10:53;4.30;;;3.58;;
9563;SDS011;4820;50.870;4.702;2023-03-07T11:13:20;4.35;;;3.80;;
9563;SDS011;4820;50.870;4.702;2023-03-07T11:15:47;4.05;;;3.60;;
9563;SDS011;4820;50.870;4.702;2023-03-07T11:21:01;5.30;;;4.80;;
9563;SDS011;4820;50.870;4.702;2023-03-07T11:23:28;5.75;;;5.15;;
9563;SDS011;4820;50.870;4.702;2023-03-07T11:25:55;6.40;;;5.30;;
9563;SDS011;4820;50.870;4.702;2023-03-07T11:28:37;5.43;;;4.93;;
9563;SDS011;4820;50.870;4.702;2023-03-07T11:36:21;4.55;;;2.95;;
9563;SDS011;4820;50.870;4.702;2023-03-07T11:39:13;5.03;;;2.72;;
9563;SDS011;4820;50.870;4.702;2023-03-07T11:41:59;2.80;;;2.50;;
9563;SDS011;4820;50.870;4.702;2023-03-07T11:45:12;2.75;;;2.30;;
9563;SDS011;4820;50.870;4.702;2023-03-07T12:01:25;1.80;;;1.70;;
9563;SDS011;4820;50.870;4.702;2023-03-07T12:09:21;2.17;;;1.90;;
9563;SDS011;4820;50.870;4.702;2023-03-07T12:27:46;3.20;;;2.15;;
9563;SDS011;4820;50.870;4.702;2023-03-07T12:33:05;2.33;;;1.90;;
9563;SDS011;4820;50.870;4.702;2023-03-07T12:35:40;2.20;;;2.00;;
9563;SDS011;4820;50.870;4.702;2023-03-07T12:38:30;2.55;;;2.17;;
9563;SDS011;4820;50.870;4.702;2023-03-07T12:41:34;2.78;;;2.15;;
9563;SDS011;4820;50.870;4.702;2023-03-07T12:44:39;2.45;;;2.25;;
9563;SDS011;4820;50.870;4.702;2023-03-07T12:47:16;7.35;;;2.15;;
9563;SDS011;4820;50.870;4.702;2023-03-07T12:50:05;2.50;;;2.17;;
9563;SDS011;4820;50.870;4.702;2023-03-07T12:52:37;2.80;;;1.95;;
9563;SDS011;4820;50.870;4.702;2023-03-07T12:55:14;2.80;;;2.50;;
9563;SDS011;4820;50.870;4.702;2023-03-07T13:01:01;2.65;;;2.20;;
9563;SDS011;4820;50.870;4.702;2023-03-07T13:06:16;2.85;;;2.22;;
9563;SDS011;4820;50.870;4.702;2023-03-07T13:08:45;2.78;;;2.30;;
9563;SDS011;4820;50.870;4.702;2023-03-07T13:11:21;3.25;;;2.38;;
9563;SDS011;4820;50.870;4.702;2023-03-07T13:19:41;3.22;;;2.25;;
9563;SDS011;4820;50.870;4.702;2023-03-07T13:24:47;2.50;;;2.30;;
9563;SDS011;4820;50.870;4.702;2023-03-07T13:27:25;2.63;;;2.20;;
9563;SDS011;4820;50.870;4.702;2023-03-07T13:38:00;3.78;;;3.22;;
9563;SDS011;4820;50.870;4.702;2023-03-07T13:53:33;7.22;;;6.53;;
9563;SDS011;4820;50.870;4.702;2023-03-07T14:01:23;7.40;;;6.63;;
9563;SDS011;4820;50.870;4.702;2023-03-07T14:07:55;4.30;;;3.90;;
9563;SDS011;4820;50.870;4.702;2023-03-07T14:26:20;3.50;;;2.75;;
9563;SDS011;4820;50.870;4.702;2023-03-07T14:28:59;3.13;;;2.85;;
9563;SDS011;4820;50.870;4.702;2023-03-07T14:31:28;3.45;;;3.15;;
9563;SDS011;4820;50.870;4.702;2023-03-07T14:33:55;3.55;;;3.17;;
9563;SDS011;4820;50.870;4.702;2023-03-07T14:36:22;3.28;;;2.97;;
9563;SDS011;4820;50.870;4.702;2023-03-07T14:38:50;3.80;;;3.50;;
9563;SDS011;4820;50.870;4.702;2023-03-07T14:47:21;3.05;;;2.75;;
9563;SDS011;4820;50.870;4.702;2023-03-07T14:52:18;2.65;;;2.45;;
9563;SDS011;4820;50.870;4.702;2023-03-07T14:54:46;2.90;;;2.60;;
9563;SDS011;4820;50.870;4.702;2023-03-07T14:57:20;2.58;;;2.25;;
9563;SDS011;4820;50.870;4.702;2023-03-07T15:02:45;3.35;;;3.05;;
9563;SDS011;4820;50.870;4.702;2023-03-07T15:05:15;3.15;;;2.55;;
9563;SDS011;4820;50.870;4.702;2023-03-07T15:07:42;2.55;;;2.35;;
9563;SDS011;4820;50.870;4.702;2023-03-07T15:10:23;2.50;;;2.30;;
9563;SDS011;4820;50.870;4.702;2023-03-07T15:12:55;3.00;;;2.42;;
9563;SDS011;4820;50.870;4.702;2023-03-07T15:15:24;2.75;;;2.40;;
9563;SDS011;4820;50.870;4.702;2023-03-07T15:17:56;2.67;;;2.47;;
9563;SDS011;4820;50.870;4.702;2023-03-07T15:20:28;3.00;;;2.47;;
9563;SDS011;4820;50.870;4.702;2023-03-07T15:23:02;2.63;;;2.42;;
9563;SDS011;4820;50.870;4.702;2023-03-07T15:25:30;2.92;;;2.67;;
9563;SDS011;4820;50.870;4.702;2023-03-07T15:27:58;3.40;;;2.78;;
9563;SDS011;4820;50.870;4.702;2023-03-07T15:30:27;2.55;;;2.35;;
9563;SDS011;4820;50.870;4.702;2023-03-07T15:33:29;2.50;;;2.30;;
9563;SDS011;4820;50.870;4.702;2023-03-07T15:36:07;2.38;;;2.17;;
9563;SDS011;4820;50.870;4.702;2023-03-07T15:38:38;2.03;;;1.80;;
9563;SDS011;4820;50.870;4.702;2023-03-07T15:44:03;2.10;;;1.83;;
9563;SDS011;4820;50.870;4.702;2023-03-07T15:46:42;3.20;;;2.33;;
9563;SDS011;4820;50.870;4.702;2023-03-07T15:50:17;2.60;;;2.40;;
9563;SDS011;4820;50.870;4.702;2023-03-07T15:52:19;2.55;;;2.35;;
9563;SDS011;4820;50.870;4.702;2023-03-07T15:54:47;2.92;;;2.63;;
9563;SDS011;4820;50.870;4.702;2023-03-07T15:57:17;3.35;;;3.03;;
9563;SDS011;4820;50.870;4.702;2023-03-07T16:00:13;4.15;;;3.33;;
9563;SDS011;4820;50.870;4.702;2023-03-07T16:02:42;4.40;;;4.00;;
9563;SDS011;4820;50.870;4.702;2023-03-07T16:07:44;5.63;;;5.13;;
9563;SDS011;4820;50.870;4.702;2023-03-07T16:10:10;5.95;;;5.45;;
9563;SDS011;4820;50.870;4.702;2023-03-07T16:12:36;6.60;;;6.00;;
9563;SDS011;4820;50.870;4.702;2023-03-07T16:15:12;6.60;;;6.00;;
9563;SDS011;4820;50.870;4.702;2023-03-07T16:17:39;7.22;;;6.63;;
9563;SDS011;4820;50.870;4.702;2023-03-07T16:20:12;7.05;;;6.45;;
9563;SDS011;4820;50.870;4.702;2023-03-07T16:22:39;7.40;;;6.70;;
9563;SDS011;4820;50.870;4.702;2023-03-07T16:25:05;7.18;;;6.47;;
9563;SDS011;4820;50.870;4.702;2023-03-07T16:27:31;4.53;;;4.13;;
9563;SDS011;4820;50.870;4.702;2023-03-07T16:29:58;3.63;;;3.33;;
9563;SDS011;4820;50.870;4.702;2023-03-07T16:32:25;3.88;;;3.40;;
9563;SDS011;4820;50.870;4.702;2023-03-07T16:34:51;3.15;;;2.85;;
9563;SDS011;4820;50.870;4.702;2023-03-07T16:37:16;3.20;;;2.90;;
9563;SDS011;4820;50.870;4.702;2023-03-07T16:39:42;2.83;;;2.63;;
9563;SDS011;4820;50.870;4.702;2023-03-07T16:42:26;4.05;;;3.20;;
9563;SDS011;4820;50.870;4.702;2023-03-07T16:44:51;2.90;;;2.70;;
9563;SDS011;4820;50.870;4.702;2023-03-07T16:47:17;3.27;;;2.97;;
9563;SDS011;4820;50.870;4.702;2023-03-07T16:49:43;3.17;;;2.80;;
9563;SDS011;4820;50.870;4.702;2023-03-07T16:52:12;3.47;;;3.17;;
9563;SDS011;4820;50.870;4.702;2023-03-07T16:54:38;3.50;;;3.20;;
9563;SDS011;4820;50.870;4.702;2023-03-07T16:57:04;3.50;;;3.20;;
9563;SDS011;4820;50.870;4.702;2023-03-07T16:59:35;4.00;;;3.60;;
9563;SDS011;4820;50.870;4.702;2023-03-07T17:02:17;4.30;;;3.90;;
9563;SDS011;4820;50.870;4.702;2023-03-07T17:04:44;5.03;;;4.35;;
9563;SDS011;4820;50.870;4.702;2023-03-07T17:07:14;5.20;;;4.70;;
9563;SDS011;4820;50.870;4.702;2023-03-07T17:09:41;5.40;;;4.90;;
9563;SDS011;4820;50.870;4.702;2023-03-07T17:12:07;5.85;;;5.30;;
9563;SDS011;4820;50.870;4.702;2023-03-07T17:14:33;5.80;;;5.28;;
9563;SDS011;4820;50.870;4.702;2023-03-07T17:16:59;6.25;;;5.57;;
9563;SDS011;4820;50.870;4.702;2023-03-07T17:19:29;5.85;;;5.32;;
9563;SDS011;4820;50.870;4.702;2023-03-07T17:21:56;6.00;;;5.50;;
9563;SDS011;4820;50.870;4.702;2023-03-07T17:24:25;5.75;;;5.25;;
9563;SDS011;4820;50.870;4.702;2023-03-07T17:26:52;6.00;;;5.38;;
9563;SDS011;4820;50.870;4.702;2023-03-07T17:31:48;6.43;;;5.88;;
9563;SDS011;4820;50.870;4.702;2023-03-07T17:34:32;6.47;;;5.82;;
9563;SDS011;4820;50.870;4.702;2023-03-07T17:36:59;5.75;;;5.25;;
9563;SDS011;4820;50.870;4.702;2023-03-07T17:39:25;5.45;;;4.95;;
9563;SDS011;4820;50.870;4.702;2023-03-07T17:41:55;6.93;;;5.00;;
9563;SDS011;4820;50.870;4.702;2023-03-07T17:44:22;4.35;;;3.95;;
9563;SDS011;4820;50.870;4.702;2023-03-07T17:46:50;5.47;;;4.88;;
9563;SDS011;4820;50.870;4.702;2023-03-07T17:49:19;5.15;;;4.50;;
9563;SDS011;4820;50.870;4.702;2023-03-07T17:51:45;5.60;;;5.07;;
9563;SDS011;4820;50.870;4.702;2023-03-07T17:54:13;6.07;;;5.47;;
9563;SDS011;4820;50.870;4.702;2023-03-07T17:56:39;5.75;;;5.20;;
9563;SDS011;4820;50.870;4.702;2023-03-07T17:59:05;5.47;;;4.97;;
9563;SDS011;4820;50.870;4.702;2023-03-07T18:01:32;6.13;;;5.45;;
9563;SDS011;4820;50.870;4.702;2023-03-07T18:03:59;6.25;;;5.65;;